createdAt,value
2019-05-29T00:01:56.232Z,2.60
2019-05-29T00:04:24.673Z,2.27
2019-05-29T00:06:53.101Z,1.80
2019-05-29T00:09:21.549Z,1.40
2019-05-29T00:11:50.036Z,2.63
2019-05-29T00:14:26.932Z,3.20
2019-05-29T00:16:48.818Z,3.00
2019-05-29T00:19:17.371Z,4.90
2019-05-29T00:21:47.183Z,1.50
2019-05-29T00:24:15.687Z,1.83
2019-05-29T00:26:44.102Z,1.50
2019-05-29T00:29:13.753Z,1.37
2019-05-29T00:31:42.284Z,3.10
2019-05-29T00:34:11.022Z,1.47
2019-05-29T00:36:39.540Z,3.90
2019-05-29T00:39:08.670Z,2.27
2019-05-29T00:41:37.322Z,2.23
2019-05-29T00:44:07.036Z,1.63
2019-05-29T00:46:35.604Z,5.23
2019-05-29T00:49:04.113Z,2.00
2019-05-29T00:51:32.597Z,2.63
2019-05-29T00:54:01.620Z,1.83
2019-05-29T00:56:30.076Z,1.70
2019-05-29T00:58:58.576Z,2.23
2019-05-29T01:01:27.011Z,3.20
2019-05-29T01:03:55.452Z,2.80
2019-05-29T01:06:23.876Z,3.50
2019-05-29T01:08:52.329Z,5.67
2019-05-29T01:11:21.016Z,4.00
2019-05-29T01:13:49.531Z,4.27
2019-05-29T01:16:17.981Z,5.40
2019-05-29T01:18:46.406Z,5.07
2019-05-29T01:21:15.892Z,4.93
2019-05-29T01:23:44.454Z,5.27
2019-05-29T01:26:12.887Z,6.17
2019-05-29T01:28:41.333Z,5.37
2019-05-29T01:31:09.765Z,5.80
2019-05-29T01:33:38.198Z,5.93
2019-05-29T01:36:06.645Z,6.80
2019-05-29T01:38:35.074Z,8.00
2019-05-29T01:41:03.594Z,8.00
2019-05-29T01:43:32.023Z,8.47
2019-05-29T01:46:00.458Z,7.77
2019-05-29T01:48:28.880Z,8.00
2019-05-29T01:50:57.328Z,8.33
2019-05-29T01:53:25.749Z,8.03
2019-05-29T01:55:54.209Z,10.30
2019-05-29T01:58:23.874Z,8.57
2019-05-29T02:00:52.411Z,7.97
2019-05-29T02:03:21.952Z,9.00
2019-05-29T02:05:50.762Z,8.23
2019-05-29T02:08:20.055Z,8.67
2019-05-29T02:10:48.561Z,8.63
2019-05-29T02:13:17.256Z,8.17
2019-05-29T02:15:45.980Z,8.70
2019-05-29T02:18:14.396Z,9.40
2019-05-29T02:20:42.834Z,9.23
2019-05-29T02:23:11.345Z,7.80
2019-05-29T02:25:39.805Z,9.87
2019-05-29T02:28:09.921Z,9.07
2019-05-29T02:30:38.352Z,9.20
2019-05-29T02:33:06.847Z,10.93
2019-05-29T02:35:35.338Z,9.70
2019-05-29T02:38:03.783Z,10.63
2019-05-29T02:40:32.222Z,11.77
2019-05-29T02:43:00.781Z,10.63
2019-05-29T02:45:50.290Z,10.60
2019-05-29T02:47:59.449Z,12.50
2019-05-29T02:50:29.311Z,10.20
2019-05-29T02:52:58.263Z,10.83
2019-05-29T02:55:27.021Z,11.13
2019-05-29T02:57:56.077Z,10.70
2019-05-29T03:00:31.430Z,9.97
2019-05-29T03:03:00.081Z,10.27
2019-05-29T03:05:29.845Z,10.23
2019-05-29T03:07:58.499Z,12.07
2019-05-29T03:10:28.630Z,11.40
2019-05-29T03:12:57.337Z,11.80
2019-05-29T03:15:27.045Z,10.43
2019-05-29T03:17:57.110Z,12.60
2019-05-29T03:20:25.987Z,13.57
2019-05-29T03:22:54.557Z,12.87
2019-05-29T03:25:24.324Z,13.50
2019-05-29T03:27:52.861Z,13.20
2019-05-29T03:30:21.498Z,14.27
2019-05-29T03:32:49.977Z,14.20
2019-05-29T03:35:18.411Z,17.07
2019-05-29T03:37:46.867Z,16.77
2019-05-29T03:40:15.317Z,17.33
2019-05-29T03:42:43.791Z,16.70
2019-05-29T03:45:12.351Z,20.67
2019-05-29T03:47:40.785Z,17.33
2019-05-29T03:50:09.773Z,16.20
2019-05-29T03:52:38.813Z,17.10
2019-05-29T03:55:08.261Z,16.33
2019-05-29T03:57:38.176Z,17.33
2019-05-29T04:00:08.755Z,17.60
2019-05-29T04:02:38.141Z,17.40
2019-05-29T04:05:08.105Z,16.80
2019-05-29T04:07:38.081Z,16.97
2019-05-29T04:10:08.081Z,20.27
2019-05-29T04:12:38.013Z,18.27
2019-05-29T04:15:07.564Z,17.90
2019-05-29T04:17:38.242Z,17.90
2019-05-29T04:20:08.164Z,19.27
2019-05-29T04:22:42.420Z,18.80
2019-05-29T04:25:11.362Z,19.07
2019-05-29T04:27:41.887Z,17.97
2019-05-29T04:30:11.029Z,20.50
2019-05-29T04:32:39.450Z,20.30
2019-05-29T04:35:08.020Z,19.27
2019-05-29T04:37:37.051Z,19.17
2019-05-29T04:40:07.943Z,18.90
2019-05-29T04:42:37.669Z,19.43
2019-05-29T04:45:08.119Z,19.80
2019-05-29T04:47:37.364Z,20.57
2019-05-29T04:50:07.321Z,20.57
2019-05-29T04:52:37.644Z,20.13
2019-05-29T04:55:05.996Z,21.90
2019-05-29T04:57:34.950Z,20.13
2019-05-29T05:00:04.733Z,19.73
2019-05-29T05:02:33.180Z,21.50
2019-05-29T05:05:01.610Z,20.53
2019-05-29T05:07:31.088Z,22.03
2019-05-29T05:09:59.600Z,20.27
2019-05-29T05:12:29.492Z,19.90
2019-05-29T05:14:58.399Z,20.47
2019-05-29T05:17:27.044Z,18.97
2019-05-29T05:19:55.492Z,21.77
2019-05-29T05:22:24.099Z,19.77
2019-05-29T05:24:52.577Z,20.83
2019-05-29T05:27:21.030Z,20.93
2019-05-29T05:29:49.469Z,19.10
2019-05-29T05:32:17.925Z,21.33
2019-05-29T05:34:46.420Z,22.73
2019-05-29T05:37:14.866Z,21.17
2019-05-29T05:39:43.432Z,19.53
2019-05-29T05:42:11.948Z,20.67
2019-05-29T05:44:41.132Z,20.83
2019-05-29T05:47:09.738Z,18.83
2019-05-29T05:49:39.416Z,19.80
2019-05-29T05:52:08.123Z,20.23
2019-05-29T05:54:38.054Z,17.73
2019-05-29T05:57:06.469Z,19.27
2019-05-29T05:59:35.758Z,20.87
2019-05-29T06:02:04.618Z,18.73
2019-05-29T06:04:33.805Z,18.07
2019-05-29T06:07:02.409Z,19.10
2019-05-29T06:09:32.580Z,17.93
2019-05-29T06:12:01.216Z,16.70
2019-05-29T06:14:29.676Z,17.00
2019-05-29T06:16:58.130Z,18.10
2019-05-29T06:19:26.640Z,17.10
2019-05-29T06:21:55.173Z,16.43
2019-05-29T06:24:23.826Z,16.20
2019-05-29T06:26:52.394Z,16.07
2019-05-29T06:29:20.881Z,15.10
2019-05-29T06:31:49.314Z,15.73
2019-05-29T06:34:17.785Z,14.47
2019-05-29T06:36:48.327Z,16.20
2019-05-29T06:39:16.376Z,14.57
2019-05-29T06:41:44.805Z,14.93
2019-05-29T06:44:13.333Z,15.47
2019-05-29T06:46:42.573Z,13.30
2019-05-29T06:49:11.142Z,14.10
2019-05-29T06:51:39.576Z,13.50
2019-05-29T06:54:08.092Z,14.67
2019-05-29T06:56:37.619Z,18.53
2019-05-29T06:59:06.320Z,14.40
2019-05-29T07:01:35.247Z,13.50
2019-05-29T07:04:11.854Z,14.50
2019-05-29T07:06:34.297Z,11.77
2019-05-29T07:09:02.822Z,13.40
2019-05-29T07:11:31.242Z,12.07
2019-05-29T07:13:59.687Z,12.37
2019-05-29T07:16:43.238Z,12.27
2019-05-29T07:21:28.495Z,11.60
2019-05-29T07:23:56.967Z,11.57
2019-05-29T07:26:25.441Z,13.00
2019-05-29T07:29:06.786Z,10.67
2019-05-29T07:31:24.055Z,11.83
2019-05-29T07:33:52.554Z,10.97
2019-05-29T07:36:21.031Z,10.80
2019-05-29T07:39:02.233Z,10.50
2019-05-29T07:41:19.652Z,11.50
2019-05-29T07:43:48.172Z,9.90
2019-05-29T07:46:17.506Z,10.30
2019-05-29T07:48:48.030Z,8.93
2019-05-29T07:51:16.081Z,10.03
2019-05-29T07:53:44.531Z,9.80
2019-05-29T07:56:22.098Z,9.33
2019-05-29T07:58:49.041Z,7.53
2019-05-29T08:01:14.062Z,9.40
2019-05-29T08:03:43.465Z,9.20
2019-05-29T08:06:12.251Z,7.47
2019-05-29T08:08:41.192Z,8.93
2019-05-29T08:11:09.782Z,7.83
2019-05-29T08:13:39.383Z,7.77
2019-05-29T08:16:08.019Z,7.33
2019-05-29T08:18:36.570Z,6.97
2019-05-29T08:21:05.027Z,7.10
2019-05-29T08:23:33.432Z,7.43
2019-05-29T08:26:01.936Z,6.37
2019-05-29T08:28:30.368Z,7.20
2019-05-29T08:30:58.803Z,7.53
2019-05-29T08:33:27.247Z,7.00
2019-05-29T08:36:00.131Z,5.80
2019-05-29T08:38:25.809Z,5.87
2019-05-29T08:40:54.233Z,5.70
2019-05-29T08:43:22.731Z,6.70
2019-05-29T08:45:52.728Z,6.10
2019-05-29T08:48:21.301Z,5.93
2019-05-29T08:50:49.991Z,6.50
2019-05-29T08:53:18.621Z,5.50
2019-05-29T08:55:48.159Z,5.73
2019-05-29T08:58:16.946Z,6.57
2019-05-29T09:00:48.526Z,6.47
2019-05-29T09:03:15.603Z,5.90
2019-05-29T09:05:44.564Z,5.63
2019-05-29T09:08:13.167Z,6.43
2019-05-29T09:10:43.118Z,5.27
2019-05-29T09:13:11.812Z,6.07
2019-05-29T09:15:40.241Z,5.33
2019-05-29T09:18:08.736Z,5.43
2019-05-29T09:21:00.860Z,5.53
2019-05-29T09:23:07.338Z,5.03
2019-05-29T09:25:35.747Z,4.47
2019-05-29T09:28:18.039Z,5.40
2019-05-29T09:30:46.329Z,5.07
2019-05-29T09:33:16.176Z,3.97
2019-05-29T09:35:44.921Z,4.13
2019-05-29T09:38:14.062Z,4.60
2019-05-29T09:40:43.668Z,4.30
2019-05-29T09:43:12.106Z,4.63
2019-05-29T09:45:40.524Z,3.73
2019-05-29T09:48:08.969Z,4.33
2019-05-29T09:50:49.716Z,4.10
2019-05-29T09:53:07.626Z,3.60
2019-05-29T09:55:36.125Z,4.40
2019-05-29T09:58:04.760Z,3.70
2019-05-29T10:00:33.293Z,4.70
2019-05-29T10:03:01.765Z,4.10
2019-05-29T10:05:30.243Z,4.37
2019-05-29T10:07:59.720Z,3.97
2019-05-29T10:10:28.609Z,4.83
2019-05-29T10:12:58.013Z,4.83
2019-05-29T10:15:26.691Z,5.20
2019-05-29T10:17:55.725Z,5.23
2019-05-29T10:20:26.672Z,6.07
2019-05-29T10:22:55.683Z,7.93
2019-05-29T10:25:25.314Z,5.83
2019-05-29T10:27:53.836Z,4.73
2019-05-29T10:30:23.145Z,4.83
2019-05-29T10:32:52.939Z,6.00
2019-05-29T10:35:21.647Z,5.73
2019-05-29T10:37:50.736Z,6.03
2019-05-29T10:40:19.484Z,5.70
2019-05-29T10:42:49.088Z,4.60
2019-05-29T10:45:18.080Z,5.13
2019-05-29T10:47:47.424Z,4.43
2019-05-29T10:50:16.440Z,3.57
2019-05-29T10:52:45.845Z,3.33
2019-05-29T10:55:16.402Z,3.60
2019-05-29T10:57:44.843Z,4.20
2019-05-29T11:00:13.576Z,4.20
2019-05-29T11:02:42.039Z,10.50
2019-05-29T11:05:10.802Z,3.83
2019-05-29T11:07:39.242Z,3.93
2019-05-29T11:10:12.664Z,4.03
2019-05-29T11:12:39.930Z,4.23
2019-05-29T11:15:20.772Z,3.50
2019-05-29T11:17:39.535Z,4.53
2019-05-29T11:20:09.057Z,3.67
2019-05-29T11:22:37.500Z,4.17
2019-05-29T11:25:21.441Z,4.00
2019-05-29T11:27:37.465Z,3.73
2019-05-29T11:30:08.425Z,3.57
2019-05-29T11:32:36.957Z,3.43
2019-05-29T11:35:06.220Z,3.80
2019-05-29T11:37:34.661Z,3.70
2019-05-29T11:40:04.058Z,2.90
2019-05-29T11:42:32.589Z,3.40
2019-05-29T11:45:01.086Z,3.47
2019-05-29T11:47:29.618Z,3.57
2019-05-29T11:50:07.568Z,3.17
2019-05-29T11:52:39.801Z,5.63
2019-05-29T11:55:00.064Z,3.70
2019-05-29T11:57:28.694Z,2.97
2019-05-29T12:00:00.168Z,3.93
2019-05-29T12:02:27.341Z,2.90
2019-05-29T12:04:55.770Z,2.07
2019-05-29T12:07:24.230Z,2.97
2019-05-29T12:09:53.315Z,3.63
2019-05-29T12:12:21.991Z,3.50
2019-05-29T12:15:00.334Z,3.83
2019-05-29T12:17:20.784Z,3.50
2019-05-29T12:19:49.333Z,4.30
2019-05-29T12:22:17.792Z,6.10
2019-05-29T12:24:46.284Z,2.57
2019-05-29T12:27:14.892Z,2.53
2019-05-29T12:29:43.390Z,1.87
2019-05-29T12:32:12.541Z,1.37
2019-05-29T12:34:53.145Z,2.07
2019-05-29T12:37:11.544Z,1.60
2019-05-29T12:39:40.022Z,1.57
2019-05-29T12:42:08.440Z,2.40
2019-05-29T12:44:36.969Z,2.60
2019-05-29T12:47:05.745Z,2.10
2019-05-29T12:49:34.358Z,4.60
2019-05-29T12:52:07.185Z,2.03
2019-05-29T12:54:33.154Z,2.20
2019-05-29T12:57:02.354Z,1.33
2019-05-29T12:59:31.121Z,2.23
2019-05-29T13:02:00.579Z,1.83
2019-05-29T13:04:29.250Z,1.93
2019-05-29T13:06:58.642Z,1.50
2019-05-29T13:09:27.332Z,1.47
2019-05-29T13:11:56.471Z,1.30
2019-05-29T13:14:25.294Z,1.50
2019-05-29T13:16:54.740Z,2.90
2019-05-29T13:19:23.361Z,3.83
2019-05-29T13:21:51.800Z,1.60
2019-05-29T13:24:20.216Z,1.53
2019-05-29T13:26:48.629Z,1.30
2019-05-29T13:29:17.069Z,1.83
2019-05-29T13:31:45.640Z,2.40
2019-05-29T13:34:14.184Z,2.67
2019-05-29T13:36:42.650Z,1.70
2019-05-29T13:39:11.150Z,2.20
2019-05-29T13:41:39.604Z,2.57
2019-05-29T13:44:08.048Z,1.93
2019-05-29T13:46:36.525Z,2.07
2019-05-29T13:49:05.165Z,1.67
2019-05-29T13:51:33.768Z,2.60
2019-05-29T13:54:09.274Z,1.90
2019-05-29T13:56:32.619Z,2.20
2019-05-29T13:59:02.062Z,1.90
2019-05-29T14:01:30.787Z,1.90
2019-05-29T14:04:00.130Z,3.50
2019-05-29T14:06:29.105Z,1.80
2019-05-29T14:08:58.770Z,2.07
2019-05-29T14:11:27.578Z,1.70
2019-05-29T14:13:55.997Z,1.73
2019-05-29T14:16:24.437Z,2.43
2019-05-29T14:18:52.893Z,1.70
2019-05-29T14:21:21.472Z,2.17
2019-05-29T14:23:49.977Z,1.43
2019-05-29T14:26:18.519Z,2.63
2019-05-29T14:28:46.946Z,2.47
2019-05-29T14:31:15.432Z,1.70
2019-05-29T14:33:43.902Z,3.17
2019-05-29T14:36:12.315Z,1.80
2019-05-29T14:38:40.782Z,1.40
2019-05-29T14:41:09.896Z,5.00
2019-05-29T14:43:38.449Z,3.23
2019-05-29T14:46:07.990Z,1.57
2019-05-29T14:48:36.671Z,1.60
2019-05-29T14:51:06.607Z,1.60
2019-05-29T14:53:35.153Z,1.90
2019-05-29T14:56:04.479Z,1.30
2019-05-29T14:58:33.156Z,1.20
2019-05-29T15:01:02.972Z,2.10
2019-05-29T15:03:31.673Z,1.30
2019-05-29T15:06:00.086Z,1.70
2019-05-29T15:08:28.533Z,1.50
2019-05-29T15:10:57.056Z,2.00
2019-05-29T15:13:25.481Z,1.73
2019-05-29T15:15:53.925Z,1.40
2019-05-29T15:18:22.397Z,1.40
2019-05-29T15:20:50.899Z,1.40
2019-05-29T15:23:19.424Z,1.30
2019-05-29T15:25:47.837Z,3.13
2019-05-29T15:28:17.893Z,1.50
2019-05-29T15:30:46.436Z,2.00
2019-05-29T15:33:14.992Z,1.40
2019-05-29T15:35:43.509Z,1.50
2019-05-29T15:38:12.850Z,2.20
2019-05-29T15:40:41.349Z,1.20
2019-05-29T15:43:10.850Z,1.20
2019-05-29T15:45:39.441Z,2.60
2019-05-29T15:48:08.938Z,2.27
2019-05-29T15:50:37.478Z,1.30
2019-05-29T15:53:07.105Z,1.30
2019-05-29T15:55:35.650Z,1.30
2019-05-29T15:58:04.694Z,1.30
2019-05-29T16:00:33.385Z,3.53
2019-05-29T16:03:02.056Z,1.40
2019-05-29T16:05:30.535Z,1.97
2019-05-29T16:07:59.024Z,1.50
2019-05-29T16:10:27.665Z,1.10
2019-05-29T16:12:56.117Z,3.70
2019-05-29T16:15:24.618Z,2.17
2019-05-29T16:17:53.053Z,2.80
2019-05-29T16:20:22.823Z,2.03
2019-05-29T16:22:51.501Z,1.70
2019-05-29T16:25:35.548Z,1.77
2019-05-29T16:27:50.237Z,2.33
2019-05-29T16:30:20.038Z,1.57
2019-05-29T16:32:49.788Z,2.10
2019-05-29T16:35:19.586Z,2.10
2019-05-29T16:37:48.162Z,1.93
2019-05-29T16:40:18.143Z,2.17
2019-05-29T16:42:46.699Z,2.30
2019-05-29T16:45:16.380Z,1.73
2019-05-29T16:47:45.005Z,1.80
2019-05-29T16:50:17.288Z,3.07
2019-05-29T16:52:45.811Z,1.97
2019-05-29T16:55:17.206Z,1.90
2019-05-29T16:57:45.981Z,2.03
2019-05-29T17:00:17.437Z,2.20
2019-05-29T17:02:46.187Z,2.33
2019-05-29T17:05:15.798Z,2.23
2019-05-29T17:07:44.518Z,2.70
2019-05-29T17:10:16.174Z,2.30
2019-05-29T17:12:44.739Z,2.30
2019-05-29T17:15:17.109Z,2.13
2019-05-29T17:17:45.875Z,2.23
2019-05-29T17:20:14.803Z,2.20
2019-05-29T17:22:43.296Z,2.70
2019-05-29T17:25:11.894Z,2.57
2019-05-29T17:27:40.356Z,2.67
2019-05-29T17:30:09.736Z,2.43
2019-05-29T17:32:38.313Z,2.00
2019-05-29T17:35:08.339Z,1.80
2019-05-29T17:37:37.199Z,2.40
2019-05-29T17:40:06.933Z,1.80
2019-05-29T17:42:35.536Z,3.80
2019-05-29T17:45:08.739Z,2.33
2019-05-29T17:47:37.537Z,2.53
2019-05-29T17:50:09.898Z,2.83
2019-05-29T17:52:38.509Z,1.80
2019-05-29T17:55:08.081Z,2.00
2019-05-29T17:57:36.547Z,2.30
2019-05-29T18:00:11.741Z,3.30
2019-05-29T18:02:51.405Z,2.60
2019-05-29T18:05:10.390Z,2.60
2019-05-29T18:07:38.900Z,2.53
2019-05-29T18:10:09.497Z,1.97
2019-05-29T18:12:38.719Z,4.00
2019-05-29T18:15:09.086Z,2.80
2019-05-29T18:17:37.547Z,2.50
2019-05-29T18:20:07.346Z,2.83
2019-05-29T18:22:37.213Z,2.57
2019-05-29T18:25:06.952Z,2.20
2019-05-29T18:27:35.493Z,2.53
2019-05-29T18:30:08.322Z,2.13
2019-05-29T18:32:37.771Z,2.30
2019-05-29T18:35:10.038Z,3.77
2019-05-29T18:37:38.600Z,2.30
2019-05-29T18:40:12.508Z,2.60
2019-05-29T18:42:38.969Z,2.57
2019-05-29T18:45:20.238Z,2.67
2019-05-29T18:47:39.147Z,4.50
2019-05-29T18:50:08.632Z,1.93
2019-05-29T18:52:37.867Z,2.13
2019-05-29T18:55:09.824Z,4.13
2019-05-29T18:57:38.408Z,3.30
2019-05-29T19:00:11.867Z,2.00
2019-05-29T19:02:40.302Z,2.40
2019-05-29T19:05:10.125Z,3.00
2019-05-29T19:07:38.674Z,4.10
2019-05-29T19:10:07.974Z,2.73
2019-05-29T19:12:36.568Z,2.63
2019-05-29T19:15:08.610Z,2.80
2019-05-29T19:17:37.973Z,3.10
2019-05-29T19:20:07.349Z,2.67
2019-05-29T19:22:35.862Z,3.80
2019-05-29T19:25:06.325Z,5.03
2019-05-29T19:27:41.484Z,3.90
2019-05-29T19:30:08.487Z,3.77
2019-05-29T19:32:37.026Z,3.60
2019-05-29T19:35:08.565Z,4.13
2019-05-29T19:37:37.245Z,4.50
2019-05-29T19:40:07.697Z,4.43
2019-05-29T19:42:36.424Z,7.43
2019-05-29T19:45:07.610Z,4.40
2019-05-29T19:47:36.212Z,4.90
2019-05-29T19:50:10.656Z,4.80
2019-05-29T19:52:38.619Z,4.23
2019-05-29T19:55:07.853Z,5.67
2019-05-29T19:57:52.518Z,3.80
2019-05-29T20:00:09.323Z,4.30
2019-05-29T20:02:38.596Z,4.40
2019-05-29T20:05:07.733Z,3.87
2019-05-29T20:07:37.560Z,5.40
2019-05-29T20:10:07.894Z,5.30
2019-05-29T20:12:36.345Z,4.80
2019-05-29T20:15:06.706Z,5.20
2019-05-29T20:17:36.259Z,5.30
2019-05-29T20:20:06.960Z,5.83
2019-05-29T20:22:37.085Z,5.30
2019-05-29T20:25:07.452Z,6.20
2019-05-29T20:27:36.355Z,7.43
2019-05-29T20:30:07.310Z,5.60
2019-05-29T20:32:36.821Z,5.07
2019-05-29T20:35:06.179Z,4.70
2019-05-29T20:37:34.757Z,5.20
2019-05-29T20:40:04.421Z,6.23
2019-05-29T20:42:34.122Z,6.30
2019-05-29T20:45:02.855Z,6.50
2019-05-29T20:47:31.644Z,5.50
2019-05-29T20:50:00.282Z,5.83
2019-05-29T20:52:28.798Z,5.80
2019-05-29T20:54:58.644Z,6.23
2019-05-29T20:57:27.420Z,6.60
2019-05-29T20:59:55.957Z,6.60
2019-05-29T21:02:24.526Z,6.73
2019-05-29T21:04:52.990Z,6.60
2019-05-29T21:07:21.493Z,6.00
2019-05-29T21:09:49.984Z,6.43
2019-05-29T21:12:18.401Z,6.40
2019-05-29T21:14:46.922Z,5.63
2019-05-29T21:17:15.366Z,7.50
2019-05-29T21:19:44.705Z,6.73
2019-05-29T21:22:13.310Z,6.27
2019-05-29T21:24:46.343Z,6.30
2019-05-29T21:27:12.212Z,6.40
2019-05-29T21:29:41.244Z,6.90
2019-05-29T21:32:09.848Z,7.07
2019-05-29T21:34:38.341Z,7.90
2019-05-29T21:37:06.855Z,6.33
2019-05-29T21:39:36.286Z,6.87
2019-05-29T21:42:04.960Z,6.50
2019-05-29T21:44:33.423Z,6.67
2019-05-29T21:47:01.855Z,8.00
2019-05-29T21:49:31.668Z,7.70
2019-05-29T21:52:00.300Z,7.03
2019-05-29T21:54:28.765Z,6.43
2019-05-29T21:56:57.282Z,7.03
2019-05-29T21:59:25.757Z,7.40
2019-05-29T22:01:54.435Z,7.10
2019-05-29T22:04:22.974Z,10.23
2019-05-29T22:06:51.391Z,6.73
2019-05-29T22:09:19.909Z,7.57
2019-05-29T22:11:48.497Z,8.00
2019-05-29T22:14:17.065Z,7.83
2019-05-29T22:16:45.684Z,8.43
2019-05-29T22:19:14.173Z,8.40
2019-05-29T22:21:42.627Z,7.90
2019-05-29T22:24:11.130Z,9.33
2019-05-29T22:26:39.566Z,7.43
2019-05-29T22:29:17.766Z,8.13
2019-05-29T22:31:38.205Z,8.90
2019-05-29T22:34:06.617Z,7.97
2019-05-29T22:36:35.121Z,8.07
2019-05-29T22:39:04.697Z,8.77
2019-05-29T22:41:33.209Z,8.37
2019-05-29T22:44:02.593Z,9.07
2019-05-29T22:46:31.179Z,9.13
2019-05-29T22:48:59.860Z,9.53
2019-05-29T22:51:28.304Z,9.83
2019-05-29T22:53:57.826Z,10.00
2019-05-29T22:56:26.571Z,8.60
2019-05-29T22:58:56.014Z,9.40
2019-05-29T23:01:24.716Z,9.93
2019-05-29T23:03:54.117Z,8.17
2019-05-29T23:06:22.726Z,10.13
2019-05-29T23:08:52.136Z,10.50
2019-05-29T23:11:20.720Z,9.37
2019-05-29T23:13:49.136Z,9.37
2019-05-29T23:16:17.531Z,9.53
2019-05-29T23:18:45.966Z,8.80
2019-05-29T23:21:14.401Z,9.50
2019-05-29T23:23:42.876Z,9.50
2019-05-29T23:26:11.330Z,8.70
2019-05-29T23:28:39.823Z,8.90
2019-05-29T23:31:08.246Z,8.97
2019-05-29T23:33:36.722Z,8.07
2019-05-29T23:36:05.202Z,7.77
2019-05-29T23:38:33.716Z,7.63
2019-05-29T23:41:03.634Z,7.90
2019-05-29T23:43:32.375Z,7.00
2019-05-29T23:46:02.369Z,6.47
2019-05-29T23:48:31.046Z,6.07
2019-05-29T23:50:59.579Z,5.67
2019-05-29T23:53:28.189Z,5.77
2019-05-29T23:55:57.623Z,6.30
2019-05-29T23:58:26.353Z,6.97
